createdAt,value
2016-10-17T00:00:54.522Z,961.1
2016-10-17T00:01:54.515Z,961.15
2016-10-17T00:02:54.502Z,961.12
2016-10-17T00:03:54.490Z,961.1
2016-10-17T00:04:54.478Z,961.13
2016-10-17T00:05:54.468Z,961.17
2016-10-17T00:06:54.462Z,961.12
2016-10-17T00:07:54.451Z,961.17
2016-10-17T00:08:54.439Z,961.14
2016-10-17T00:09:54.445Z,961.17
2016-10-17T00:10:54.416Z,961.16
2016-10-17T00:11:54.404Z,961.18
2016-10-17T00:12:54.394Z,961.16
2016-10-17T00:13:54.390Z,961.18
2016-10-17T00:14:54.370Z,961.21
2016-10-17T00:15:54.363Z,961.22
2016-10-17T00:16:54.351Z,961.24
2016-10-17T00:17:54.339Z,961.19
2016-10-17T00:18:54.331Z,961.21
2016-10-17T00:19:54.319Z,961.17
2016-10-17T00:20:54.308Z,961.22
2016-10-17T00:21:54.572Z,961.2
2016-10-17T00:22:54.290Z,961.24
2016-10-17T00:23:54.276Z,961.25
2016-10-17T00:24:54.270Z,961.21
2016-10-17T00:25:54.253Z,961.25
2016-10-17T00:26:54.247Z,961.24
2016-10-17T00:27:54.234Z,961.24
2016-10-17T00:28:54.350Z,961.24
2016-10-17T00:29:54.210Z,961.25
2016-10-17T00:30:54.205Z,961.22
2016-10-17T00:31:54.192Z,961.24
2016-10-17T00:32:54.180Z,961.2
2016-10-17T00:33:54.172Z,961.22
2016-10-17T00:34:54.159Z,961.24
2016-10-17T00:35:54.150Z,961.23
2016-10-17T00:36:54.152Z,961.27
2016-10-17T00:37:54.126Z,961.23
2016-10-17T00:38:54.117Z,961.21
2016-10-17T00:39:54.107Z,961.25
2016-10-17T00:40:54.095Z,961.22
2016-10-17T00:41:54.085Z,961.21
2016-10-17T00:42:54.074Z,961.17
2016-10-17T00:43:54.065Z,961.21
2016-10-17T00:44:54.053Z,961.19
2016-10-17T00:45:54.042Z,961.18
2016-10-17T00:46:54.033Z,961.19
2016-10-17T00:47:54.024Z,961.16
2016-10-17T00:48:54.013Z,961.25
2016-10-17T00:49:54.002Z,961.2
2016-10-17T00:50:53.991Z,961.2
2016-10-17T00:51:53.982Z,961.18
2016-10-17T00:52:54.024Z,961.19
2016-10-17T00:53:53.965Z,961.27
2016-10-17T00:54:53.946Z,961.23
2016-10-17T00:55:53.937Z,961.23
2016-10-17T00:56:53.925Z,961.22
2016-10-17T00:57:53.915Z,961.19
2016-10-17T00:58:53.903Z,961.16
2016-10-17T00:59:53.900Z,961.16
2016-10-17T01:00:53.883Z,961.18
2016-10-17T01:01:53.874Z,961.21
2016-10-17T01:02:53.860Z,961.15
2016-10-17T01:03:53.853Z,961.11
2016-10-17T01:04:53.840Z,961.16
2016-10-17T01:05:53.831Z,961.13
2016-10-17T01:06:53.826Z,961.15
2016-10-17T01:07:53.814Z,961.15
2016-10-17T01:08:53.798Z,961.16
2016-10-17T01:09:53.795Z,961.13
2016-10-17T01:10:53.780Z,961.13
2016-10-17T01:11:53.767Z,961.09
2016-10-17T01:12:53.757Z,961.11
2016-10-17T01:13:53.745Z,961.13
2016-10-17T01:14:53.736Z,961.07
2016-10-17T01:15:53.725Z,961.09
2016-10-17T01:16:53.718Z,961.13
2016-10-17T01:17:53.704Z,961.08
2016-10-17T01:18:53.694Z,961.12
2016-10-17T01:19:53.684Z,961.11
2016-10-17T01:20:53.669Z,961.13
2016-10-17T01:21:53.663Z,961.12
2016-10-17T01:22:53.655Z,961.12
2016-10-17T01:23:53.641Z,961.13
2016-10-17T01:24:53.632Z,961.11
2016-10-17T01:25:53.620Z,961.15
2016-10-17T01:26:53.609Z,961.1
2016-10-17T01:27:53.596Z,961.08
2016-10-17T01:28:53.587Z,961.11
2016-10-17T01:29:53.578Z,961.06
2016-10-17T01:30:53.568Z,961.06
2016-10-17T01:31:53.553Z,961.05
2016-10-17T01:32:53.546Z,961.03
2016-10-17T01:33:53.535Z,961.02
2016-10-17T01:34:53.531Z,961.02
2016-10-17T01:35:53.510Z,961.05
2016-10-17T01:36:53.502Z,961.01
2016-10-17T01:37:53.492Z,961.06
2016-10-17T01:38:53.478Z,961
2016-10-17T01:39:53.476Z,961.03
2016-10-17T01:40:53.461Z,961.01
2016-10-17T01:41:53.447Z,961.01
2016-10-17T01:42:53.443Z,960.96
2016-10-17T01:43:53.425Z,960.94
2016-10-17T01:44:53.416Z,961
2016-10-17T01:45:53.415Z,960.97
2016-10-17T01:46:53.398Z,961.02
2016-10-17T01:47:53.387Z,960.99
2016-10-17T01:48:53.382Z,960.98
2016-10-17T01:49:53.363Z,960.98
2016-10-17T01:50:53.354Z,960.98
2016-10-17T01:51:53.344Z,960.94
2016-10-17T01:52:53.331Z,960.96
2016-10-17T01:53:53.320Z,960.96
2016-10-17T01:54:53.317Z,960.97
2016-10-17T01:55:53.298Z,960.96
2016-10-17T01:56:53.293Z,960.99
2016-10-17T01:57:53.278Z,961.02
2016-10-17T01:58:53.266Z,960.96
2016-10-17T01:59:53.255Z,961
2016-10-17T02:00:53.248Z,961.02
2016-10-17T02:01:53.232Z,960.95
2016-10-17T02:02:53.225Z,960.97
2016-10-17T02:03:53.215Z,960.94
2016-10-17T02:04:53.201Z,960.94
2016-10-17T02:05:53.194Z,960.97
2016-10-17T02:06:53.180Z,960.97
2016-10-17T02:07:53.171Z,960.98
2016-10-17T02:08:53.169Z,960.97
2016-10-17T02:09:53.153Z,960.92
2016-10-17T02:10:53.138Z,960.95
2016-10-17T02:11:53.132Z,960.99
2016-10-17T02:12:53.115Z,960.97
2016-10-17T02:13:53.105Z,960.93
2016-10-17T02:14:53.096Z,960.93
2016-10-17T02:15:53.085Z,960.94
2016-10-17T02:16:53.089Z,960.94
2016-10-17T02:17:53.064Z,960.89
2016-10-17T02:18:53.056Z,960.93
2016-10-17T02:19:53.044Z,960.89
2016-10-17T02:20:53.035Z,960.9
2016-10-17T02:21:53.019Z,960.93
2016-10-17T02:22:53.008Z,960.94
2016-10-17T02:23:53.008Z,960.93
2016-10-17T02:24:52.989Z,960.91
2016-10-17T02:25:52.983Z,960.93
2016-10-17T02:26:52.966Z,960.9
2016-10-17T02:27:52.955Z,960.89
2016-10-17T02:28:52.946Z,960.9
2016-10-17T02:29:52.958Z,960.88
2016-10-17T02:30:52.925Z,960.83
2016-10-17T02:31:52.915Z,960.88
2016-10-17T02:32:52.909Z,960.86
2016-10-17T02:33:52.891Z,960.88
2016-10-17T02:34:52.884Z,960.88
2016-10-17T02:35:52.878Z,960.84
2016-10-17T02:36:52.863Z,960.87
2016-10-17T02:37:52.849Z,960.83
2016-10-17T02:38:52.841Z,960.82
2016-10-17T02:39:52.827Z,960.81
2016-10-17T02:40:52.822Z,960.76
2016-10-17T02:41:52.808Z,960.77
2016-10-17T02:42:52.800Z,960.79
2016-10-17T02:43:52.788Z,960.77
2016-10-17T02:44:52.778Z,960.76
2016-10-17T02:45:52.765Z,960.75
2016-10-17T02:46:52.761Z,960.79
2016-10-17T02:47:52.747Z,960.83
2016-10-17T02:48:52.731Z,960.78
2016-10-17T02:49:52.722Z,960.78
2016-10-17T02:50:52.713Z,960.8
2016-10-17T02:51:52.711Z,960.78
2016-10-17T02:52:52.695Z,960.76
2016-10-17T02:53:52.685Z,960.76
2016-10-17T02:54:52.677Z,960.76
2016-10-17T02:55:52.657Z,960.74
2016-10-17T02:56:52.653Z,960.83
2016-10-17T02:57:52.640Z,960.8
2016-10-17T02:58:52.631Z,960.78
2016-10-17T02:59:52.624Z,960.84
2016-10-17T03:00:52.607Z,960.79
2016-10-17T03:01:52.600Z,960.78
2016-10-17T03:02:52.585Z,960.81
2016-10-17T03:03:52.585Z,960.84
2016-10-17T03:04:52.567Z,960.84
2016-10-17T03:05:52.558Z,960.78
2016-10-17T03:06:52.548Z,960.82
2016-10-17T03:07:52.534Z,960.81
2016-10-17T03:08:52.519Z,960.77
2016-10-17T03:09:52.516Z,960.78
2016-10-17T03:10:52.499Z,960.78
2016-10-17T03:11:52.497Z,960.78
2016-10-17T03:12:52.482Z,960.75
2016-10-17T03:13:52.469Z,960.78
2016-10-17T03:14:52.462Z,960.79
2016-10-17T03:15:52.454Z,960.8
2016-10-17T03:16:52.443Z,960.76
2016-10-17T03:17:52.427Z,960.81
2016-10-17T03:18:52.417Z,960.81
2016-10-17T03:19:52.406Z,960.78
2016-10-17T03:20:52.397Z,960.78
2016-10-17T03:21:52.385Z,960.84
2016-10-17T03:22:52.379Z,960.81
2016-10-17T03:23:52.361Z,960.79
2016-10-17T03:24:52.356Z,960.8
2016-10-17T03:25:52.344Z,960.82
2016-10-17T03:26:52.336Z,960.78
2016-10-17T03:27:52.328Z,960.85
2016-10-17T03:28:52.313Z,960.84
2016-10-17T03:29:52.299Z,960.79
2016-10-17T03:30:52.291Z,960.8
2016-10-17T03:31:52.481Z,960.77
2016-10-17T03:32:52.265Z,960.81
2016-10-17T03:33:52.259Z,960.8
2016-10-17T03:34:52.253Z,960.81
2016-10-17T03:35:52.235Z,960.81
2016-10-17T03:36:52.224Z,960.82
2016-10-17T03:37:52.214Z,960.8
2016-10-17T03:38:52.203Z,960.85
2016-10-17T03:39:52.195Z,960.87
2016-10-17T03:40:52.191Z,960.87
2016-10-17T03:41:52.173Z,960.89
2016-10-17T03:42:52.166Z,960.85
2016-10-17T03:43:52.155Z,960.89
2016-10-17T03:44:52.144Z,960.89
2016-10-17T03:45:52.134Z,960.91
2016-10-17T03:46:52.118Z,960.91
2016-10-17T03:47:52.107Z,960.91
2016-10-17T03:48:52.101Z,960.87
2016-10-17T03:49:52.093Z,960.85
2016-10-17T03:50:52.077Z,960.89
2016-10-17T03:51:52.071Z,960.87
2016-10-17T03:52:52.065Z,960.85
2016-10-17T03:53:52.045Z,960.88
2016-10-17T03:54:52.033Z,960.88
2016-10-17T03:55:52.027Z,960.88
2016-10-17T03:56:52.021Z,960.85
2016-10-17T03:57:52.010Z,960.85
2016-10-17T03:58:51.993Z,960.85
2016-10-17T03:59:51.982Z,960.86
2016-10-17T04:00:51.970Z,960.85
2016-10-17T04:01:51.969Z,960.82
2016-10-17T04:02:51.954Z,960.81
2016-10-17T04:03:51.945Z,960.79
2016-10-17T04:04:51.931Z,960.83
2016-10-17T04:05:51.920Z,960.81
2016-10-17T04:06:51.911Z,960.79
2016-10-17T04:07:51.905Z,960.83
2016-10-17T04:08:51.889Z,960.82
2016-10-17T04:09:51.877Z,960.85
2016-10-17T04:10:51.864Z,960.86
2016-10-17T04:11:51.858Z,960.92
2016-10-17T04:12:51.847Z,960.94
2016-10-17T04:13:51.839Z,960.9
2016-10-17T04:14:51.826Z,960.93
2016-10-17T04:15:51.817Z,960.81
2016-10-17T04:16:51.806Z,960.79
2016-10-17T04:17:51.791Z,960.78
2016-10-17T04:18:51.785Z,960.79
2016-10-17T04:19:51.776Z,960.84
2016-10-17T04:20:51.757Z,960.81
2016-10-17T04:21:51.755Z,960.81
2016-10-17T04:22:51.740Z,960.86
2016-10-17T04:23:51.734Z,960.84
2016-10-17T04:24:51.723Z,960.87
2016-10-17T04:25:51.725Z,960.82
2016-10-17T04:26:51.698Z,960.79
2016-10-17T04:27:51.687Z,960.85
2016-10-17T04:28:51.678Z,960.83
2016-10-17T04:29:51.667Z,960.87
2016-10-17T04:30:51.654Z,960.87
2016-10-17T04:31:51.649Z,960.91
2016-10-17T04:32:51.631Z,960.83
2016-10-17T04:33:51.625Z,960.87
2016-10-17T04:34:51.609Z,960.88
2016-10-17T04:35:51.599Z,960.93
2016-10-17T04:36:51.594Z,960.91
2016-10-17T04:37:51.586Z,960.96
2016-10-17T04:38:51.566Z,960.93
2016-10-17T04:39:51.555Z,960.92
2016-10-17T04:40:51.548Z,960.92
2016-10-17T04:41:51.533Z,960.87
2016-10-17T04:42:51.525Z,960.89
2016-10-17T04:43:51.520Z,960.91
2016-10-17T04:44:51.505Z,960.87
2016-10-17T04:45:51.493Z,960.89
2016-10-17T04:46:51.538Z,960.92
2016-10-17T04:47:51.472Z,960.91
2016-10-17T04:48:51.460Z,960.92
2016-10-17T04:49:51.458Z,960.87
2016-10-17T04:50:51.441Z,960.85
2016-10-17T04:51:51.435Z,960.85
2016-10-17T04:52:51.416Z,960.84
2016-10-17T04:53:51.404Z,960.81
2016-10-17T04:54:51.401Z,960.81
2016-10-17T04:55:51.384Z,960.83
2016-10-17T04:56:51.431Z,960.83
2016-10-17T04:57:51.364Z,960.79
2016-10-17T04:58:51.355Z,960.89
2016-10-17T04:59:51.344Z,960.86
2016-10-17T05:00:51.540Z,960.84
2016-10-17T05:01:51.324Z,960.81
2016-10-17T05:02:51.315Z,960.91
2016-10-17T05:03:51.300Z,960.86
2016-10-17T05:04:51.295Z,960.82
2016-10-17T05:05:51.283Z,960.83
2016-10-17T05:06:51.277Z,960.84
2016-10-17T05:07:51.256Z,960.8
2016-10-17T05:08:51.251Z,960.78
2016-10-17T05:09:51.238Z,960.79
2016-10-17T05:10:51.226Z,960.78
2016-10-17T05:11:51.219Z,960.76
2016-10-17T05:12:51.214Z,960.77
2016-10-17T05:13:51.195Z,960.72
2016-10-17T05:14:51.187Z,960.76
2016-10-17T05:15:51.172Z,960.76
2016-10-17T05:16:51.169Z,960.79
2016-10-17T05:17:51.152Z,960.75
2016-10-17T05:18:51.149Z,960.78
2016-10-17T05:19:51.129Z,960.74
2016-10-17T05:20:51.117Z,960.78
2016-10-17T05:21:51.111Z,960.74
2016-10-17T05:22:51.098Z,960.76
2016-10-17T05:23:51.088Z,960.74
2016-10-17T05:24:51.083Z,960.77
2016-10-17T05:25:51.065Z,960.8
2016-10-17T05:26:51.062Z,960.78
2016-10-17T05:27:51.044Z,960.8
2016-10-17T05:28:51.037Z,960.79
2016-10-17T05:29:51.021Z,960.78
2016-10-17T05:30:51.019Z,960.77
2016-10-17T05:31:50.999Z,960.76
2016-10-17T05:32:50.995Z,960.72
2016-10-17T05:33:50.986Z,960.75
2016-10-17T05:34:50.969Z,960.71
2016-10-17T05:35:50.971Z,960.75
2016-10-17T05:36:50.946Z,960.72
2016-10-17T05:37:50.934Z,960.73
2016-10-17T05:38:50.926Z,960.76
2016-10-17T05:39:50.915Z,960.82
2016-10-17T05:40:50.903Z,960.78
2016-10-17T05:41:50.895Z,960.82
2016-10-17T05:42:50.881Z,960.79
2016-10-17T05:43:50.872Z,960.83
2016-10-17T05:44:50.862Z,960.86
2016-10-17T05:45:50.853Z,960.81
2016-10-17T05:46:50.841Z,960.83
2016-10-17T05:47:50.831Z,960.83
2016-10-17T05:48:50.819Z,960.84
2016-10-17T05:49:50.812Z,960.85
2016-10-17T05:50:50.809Z,960.84
2016-10-17T05:51:50.787Z,960.83
2016-10-17T05:52:50.773Z,960.83
2016-10-17T05:53:50.772Z,960.83
2016-10-17T05:54:50.751Z,960.9
2016-10-17T05:55:50.739Z,960.91
2016-10-17T05:56:50.729Z,960.91
2016-10-17T05:57:50.721Z,960.9
2016-10-17T05:58:50.713Z,960.89
2016-10-17T05:59:50.708Z,960.89
2016-10-17T06:00:50.687Z,960.87
2016-10-17T06:01:50.680Z,960.87
2016-10-17T06:02:50.668Z,960.91
2016-10-17T06:03:50.657Z,960.89
2016-10-17T06:04:50.647Z,960.92
2016-10-17T06:05:50.636Z,960.91
2016-10-17T06:06:50.625Z,960.93
2016-10-17T06:07:50.614Z,960.96
2016-10-17T06:08:50.602Z,960.97
2016-10-17T06:09:50.599Z,960.98
2016-10-17T06:10:50.581Z,960.96
2016-10-17T06:11:50.579Z,960.94
2016-10-17T06:12:50.563Z,960.94
2016-10-17T06:13:50.556Z,960.96
2016-10-17T06:14:50.540Z,960.91
2016-10-17T06:15:50.534Z,960.95
2016-10-17T06:16:50.520Z,960.94
2016-10-17T06:17:50.508Z,960.98
2016-10-17T06:18:50.503Z,960.95
2016-10-17T06:19:50.494Z,961
2016-10-17T06:20:50.481Z,960.98
2016-10-17T06:21:50.472Z,960.99
2016-10-17T06:22:50.460Z,960.97
2016-10-17T06:23:50.449Z,960.96
2016-10-17T06:24:50.438Z,960.95
2016-10-17T06:25:50.429Z,960.97
2016-10-17T06:26:50.422Z,960.94
2016-10-17T06:27:50.412Z,960.92
2016-10-17T06:28:50.407Z,960.98
2016-10-17T06:29:50.389Z,960.96
2016-10-17T06:30:50.377Z,960.99
2016-10-17T06:31:50.366Z,960.98
2016-10-17T06:32:50.356Z,960.99
2016-10-17T06:33:50.350Z,960.97
2016-10-17T06:34:50.339Z,961.04
2016-10-17T06:35:50.332Z,961.01
2016-10-17T06:36:50.323Z,961.03
2016-10-17T06:37:50.309Z,961.04
2016-10-17T06:38:50.297Z,961.05
2016-10-17T06:39:50.293Z,961.06
2016-10-17T06:40:50.280Z,961.03
2016-10-17T06:41:50.270Z,961.04
2016-10-17T06:42:50.257Z,961.04
2016-10-17T06:43:50.258Z,961.05
2016-10-17T06:44:50.239Z,961.03
2016-10-17T06:45:50.237Z,961.01
2016-10-17T06:46:50.218Z,961.06
2016-10-17T06:47:50.211Z,961.04
2016-10-17T06:48:50.201Z,961.04
2016-10-17T06:49:50.188Z,961.02
2016-10-17T06:50:50.179Z,961
2016-10-17T06:51:50.176Z,961.04
2016-10-17T06:52:50.216Z,961.04
2016-10-17T06:53:50.155Z,961.09
2016-10-17T06:54:50.139Z,961.08
2016-10-17T06:55:50.133Z,961.08
2016-10-17T06:56:50.123Z,961.13
2016-10-17T06:57:50.116Z,961.11
2016-10-17T06:58:50.103Z,961.08
2016-10-17T06:59:50.092Z,961.12
2016-10-17T07:00:50.085Z,961.08
2016-10-17T07:01:50.073Z,961.09
2016-10-17T07:02:50.065Z,961.09
2016-10-17T07:03:50.059Z,961.12
2016-10-17T07:04:50.047Z,961.09
2016-10-17T07:05:50.042Z,961.09
2016-10-17T07:06:50.033Z,961.09
2016-10-17T07:07:50.020Z,961.1
2016-10-17T07:08:50.008Z,961.12
2016-10-17T07:09:49.998Z,961.09
2016-10-17T07:10:50.002Z,961.1
2016-10-17T07:11:49.982Z,961.09
2016-10-17T07:12:49.973Z,961.08
2016-10-17T07:13:49.963Z,961.04
2016-10-17T07:14:49.957Z,961.04
2016-10-17T07:15:49.948Z,960.96
2016-10-17T07:16:49.936Z,960.97
2016-10-17T07:17:49.933Z,960.93
2016-10-17T07:18:49.918Z,960.95
2016-10-17T07:19:49.917Z,960.94
2016-10-17T07:20:49.909Z,960.9
2016-10-17T07:21:49.894Z,960.92
2016-10-17T07:22:49.886Z,960.95
2016-10-17T07:23:49.879Z,960.83
2016-10-17T07:24:49.876Z,960.86
2016-10-17T07:25:49.864Z,960.87
2016-10-17T07:26:49.848Z,960.88
2016-10-17T07:27:49.841Z,960.88
2016-10-17T07:28:49.837Z,960.84
2016-10-17T07:29:49.831Z,960.86
2016-10-17T07:30:49.819Z,960.84
2016-10-17T07:31:49.810Z,960.88
2016-10-17T07:32:49.800Z,960.81
2016-10-17T07:33:49.794Z,960.86
2016-10-17T07:34:49.784Z,960.81
2016-10-17T07:35:49.783Z,960.83
2016-10-17T07:36:49.769Z,960.88
2016-10-17T07:37:49.762Z,960.82
2016-10-17T07:38:49.759Z,960.84
2016-10-17T07:39:49.751Z,960.9
2016-10-17T07:40:49.741Z,960.88
2016-10-17T07:41:49.730Z,960.93
2016-10-17T07:42:49.721Z,960.92
2016-10-17T07:43:49.721Z,960.95
2016-10-17T07:44:49.713Z,960.97
2016-10-17T07:45:49.701Z,960.93
2016-10-17T07:46:49.696Z,960.99
2016-10-17T07:47:49.688Z,960.96
2016-10-17T07:48:49.674Z,960.93
2016-10-17T07:49:49.670Z,960.91
2016-10-17T07:50:49.663Z,960.93
2016-10-17T07:51:49.653Z,961
2016-10-17T07:52:49.649Z,961
2016-10-17T07:53:49.647Z,960.97
2016-10-17T07:54:49.635Z,960.94
2016-10-17T07:55:49.627Z,960.97
2016-10-17T07:56:49.616Z,960.99
2016-10-17T07:57:49.621Z,960.99
2016-10-17T07:58:49.604Z,960.99
2016-10-17T08:00:49.592Z,960.99
2016-10-17T08:01:49.582Z,961.02
2016-10-17T08:02:49.577Z,961.02
2016-10-17T08:03:49.567Z,961.05
2016-10-17T08:04:49.566Z,961.04
2016-10-17T08:05:49.553Z,961.08
2016-10-17T08:06:49.545Z,961.05
2016-10-17T08:07:49.541Z,961.02
2016-10-17T08:08:49.538Z,961.05
2016-10-17T08:09:49.527Z,961.02
2016-10-17T08:10:49.520Z,961.03
2016-10-17T08:11:49.509Z,961.01
2016-10-17T08:12:49.509Z,961
2016-10-17T08:13:49.495Z,960.99
2016-10-17T08:14:49.490Z,961.01
2016-10-17T08:15:49.487Z,961.01
2016-10-17T08:16:49.477Z,961.01
2016-10-17T08:17:49.466Z,960.99
2016-10-17T08:18:49.467Z,961
2016-10-17T08:19:49.457Z,960.94
2016-10-17T08:20:49.448Z,960.94
2016-10-17T08:21:49.441Z,960.94
2016-10-17T08:22:49.433Z,960.99
2016-10-17T08:23:49.431Z,960.98
2016-10-17T08:25:49.413Z,960.98
2016-10-17T08:26:49.405Z,960.96
2016-10-17T08:27:49.401Z,960.98
2016-10-17T08:28:49.391Z,960.94
2016-10-17T08:29:49.387Z,960.97
2016-10-17T08:30:49.383Z,960.92
2016-10-17T08:31:49.369Z,960.91
2016-10-17T08:32:49.371Z,960.88
2016-10-17T08:33:49.359Z,960.89
2016-10-17T08:34:49.349Z,960.94
2016-10-17T08:35:49.346Z,960.96
2016-10-17T08:36:49.338Z,960.95
2016-10-17T08:37:49.333Z,960.98
2016-10-17T08:38:49.323Z,961.01
2016-10-17T08:39:49.326Z,960.99
2016-10-17T08:40:49.329Z,960.97
2016-10-17T08:41:49.332Z,961.01
2016-10-17T08:42:49.346Z,961.04
2016-10-17T08:43:49.286Z,961.04
2016-10-17T08:44:49.283Z,961.04
2016-10-17T08:45:49.273Z,961.08
2016-10-17T08:46:49.265Z,961.02
2016-10-17T08:47:49.278Z,961.06
2016-10-17T08:48:49.293Z,961.03
2016-10-17T08:49:49.282Z,961.02
2016-10-17T08:50:49.305Z,960.96
2016-10-17T08:51:49.300Z,960.98
2016-10-17T08:52:49.309Z,960.97
2016-10-17T08:53:49.320Z,960.92
2016-10-17T08:54:49.260Z,960.9
2016-10-17T08:55:49.267Z,960.87
2016-10-17T08:56:49.235Z,960.89
2016-10-17T08:57:49.255Z,960.87
2016-10-17T08:58:49.246Z,960.86
2016-10-17T08:59:49.253Z,960.88
2016-10-17T09:00:49.269Z,960.9
2016-10-17T09:01:49.215Z,960.89
2016-10-17T09:02:49.223Z,960.84
2016-10-17T09:03:49.252Z,960.87
2016-10-17T09:04:49.231Z,960.78
2016-10-17T09:05:49.239Z,960.84
2016-10-17T09:06:49.248Z,960.84
2016-10-17T09:07:49.255Z,960.83
2016-10-17T09:08:49.262Z,960.84
2016-10-17T09:09:49.162Z,960.86
2016-10-17T09:10:49.172Z,960.91
2016-10-17T09:11:49.186Z,960.89
2016-10-17T09:12:49.181Z,960.83
2016-10-17T09:13:49.194Z,960.84
2016-10-17T09:14:49.204Z,960.89
2016-10-17T09:15:49.217Z,960.85
2016-10-17T09:16:49.222Z,960.87
2016-10-17T09:17:49.218Z,960.9
2016-10-17T09:18:49.243Z,960.89
2016-10-17T09:19:49.234Z,960.91
2016-10-17T09:20:49.246Z,960.9
2016-10-17T09:21:49.119Z,960.89
2016-10-17T09:22:49.154Z,960.88
2016-10-17T09:23:49.159Z,960.91
2016-10-17T09:24:49.173Z,960.88
2016-10-17T09:25:49.178Z,960.94
2016-10-17T09:26:49.179Z,960.97
2016-10-17T09:27:49.204Z,960.93
2016-10-17T09:28:49.202Z,960.95
2016-10-17T09:29:49.072Z,960.91
2016-10-17T09:30:49.175Z,960.95
2016-10-17T09:31:49.071Z,960.96
2016-10-17T09:32:49.081Z,960.95
2016-10-17T09:33:49.200Z,960.96
2016-10-17T09:34:49.141Z,960.97
2016-10-17T09:35:49.142Z,960.96
2016-10-17T09:36:49.151Z,961
2016-10-17T09:37:49.130Z,961
2016-10-17T09:38:49.028Z,961
2016-10-17T09:39:49.037Z,960.97
2016-10-17T09:40:49.040Z,960.99
2016-10-17T09:41:49.046Z,961.01
2016-10-17T09:42:49.057Z,961.04
2016-10-17T09:43:49.064Z,960.97
2016-10-17T09:44:49.070Z,960.98
2016-10-17T09:45:49.084Z,961
2016-10-17T09:46:49.078Z,961.01
2016-10-17T09:47:48.990Z,960.97
2016-10-17T09:48:48.996Z,961
2016-10-17T09:49:49.011Z,960.97
2016-10-17T09:50:49.006Z,961.01
2016-10-17T09:51:49.014Z,961.01
2016-10-17T09:52:49.024Z,960.98
2016-10-17T09:53:49.033Z,961
2016-10-17T09:54:49.042Z,960.95
2016-10-17T09:55:49.044Z,960.92
2016-10-17T09:56:49.051Z,960.86
2016-10-17T09:57:49.062Z,960.88
2016-10-17T09:58:49.067Z,960.9
2016-10-17T09:59:49.036Z,960.86
2016-10-17T10:00:48.977Z,960.88
2016-10-17T10:01:48.987Z,960.87
2016-10-17T10:02:48.995Z,960.89
2016-10-17T10:03:49.005Z,960.87
2016-10-17T10:04:49.003Z,960.87
2016-10-17T10:05:49.016Z,960.86
2016-10-17T10:06:49.022Z,960.89
2016-10-17T10:07:48.998Z,960.85
2016-10-17T10:08:48.868Z,960.84
2016-10-17T10:09:48.867Z,960.84
2016-10-17T10:10:48.985Z,960.84
2016-10-17T10:11:48.860Z,960.82
2016-10-17T10:12:48.965Z,960.82
2016-10-17T10:13:48.965Z,960.82
2016-10-17T10:14:48.974Z,960.79
2016-10-17T10:15:48.984Z,960.75
2016-10-17T10:16:48.990Z,960.72
2016-10-17T10:17:48.832Z,960.78
2016-10-17T10:18:48.829Z,960.74
2016-10-17T10:19:48.956Z,960.74
2016-10-17T10:20:48.947Z,960.73
2016-10-17T10:21:48.819Z,960.7
2016-10-17T10:22:48.820Z,960.7
2016-10-17T10:23:48.813Z,960.69
2016-10-17T10:24:48.803Z,960.65
2016-10-17T10:25:48.957Z,960.61
2016-10-17T10:26:48.804Z,960.64
2016-10-17T10:27:48.803Z,960.62
2016-10-17T10:28:48.793Z,960.69
2016-10-17T10:29:48.792Z,960.64
2016-10-17T10:30:48.787Z,960.62
2016-10-17T10:31:48.788Z,960.64
2016-10-17T10:32:48.804Z,960.6
2016-10-17T10:33:48.804Z,960.6
2016-10-17T10:34:48.801Z,960.58
2016-10-17T10:35:48.808Z,960.63
2016-10-17T10:36:48.800Z,960.59
2016-10-17T10:37:48.791Z,960.61
2016-10-17T10:38:48.779Z,960.58
2016-10-17T10:39:48.793Z,960.61
2016-10-17T10:40:48.800Z,960.58
2016-10-17T10:41:48.801Z,960.57
2016-10-17T10:42:48.774Z,960.55
2016-10-17T10:43:48.775Z,960.56
2016-10-17T10:44:48.768Z,960.54
2016-10-17T10:45:48.762Z,960.52
2016-10-17T10:46:48.762Z,960.6
2016-10-17T10:47:48.760Z,960.56
2016-10-17T10:48:48.758Z,960.58
2016-10-17T10:49:48.767Z,960.55
2016-10-17T10:50:48.771Z,960.57
2016-10-17T10:51:48.767Z,960.59
2016-10-17T10:52:48.745Z,960.59
2016-10-17T10:53:48.755Z,960.59
2016-10-17T10:54:48.736Z,960.54
2016-10-17T10:55:48.738Z,960.55
2016-10-17T10:56:48.732Z,960.59
2016-10-17T10:57:48.732Z,960.57
2016-10-17T10:58:48.627Z,960.55
2016-10-17T10:59:48.626Z,960.55
2016-10-17T11:00:48.620Z,960.57
2016-10-17T11:01:48.619Z,960.57
2016-10-17T11:02:48.617Z,960.56
2016-10-17T11:03:48.724Z,960.61
2016-10-17T11:04:48.724Z,960.56
2016-10-17T11:05:48.609Z,960.52
2016-10-17T11:06:48.612Z,960.52
2016-10-17T11:07:48.601Z,960.52
2016-10-17T11:08:48.597Z,960.46
2016-10-17T11:09:48.595Z,960.42
2016-10-17T11:10:48.593Z,960.4
2016-10-17T11:11:48.592Z,960.4
2016-10-17T11:12:48.593Z,960.42
2016-10-17T11:13:48.593Z,960.45
2016-10-17T11:14:48.584Z,960.46
2016-10-17T11:15:48.584Z,960.46
2016-10-17T11:16:48.577Z,960.42
2016-10-17T11:17:48.588Z,960.42
2016-10-17T11:18:48.574Z,960.4
2016-10-17T11:19:48.571Z,960.45
2016-10-17T11:20:48.568Z,960.42
2016-10-17T11:21:48.561Z,960.42
2016-10-17T11:22:48.558Z,960.43
2016-10-17T11:23:48.567Z,960.44
2016-10-17T11:24:48.556Z,960.44
2016-10-17T11:25:48.550Z,960.38
2016-10-17T11:26:48.551Z,960.4
2016-10-17T11:27:48.550Z,960.35
2016-10-17T11:28:48.548Z,960.33
2016-10-17T11:29:48.545Z,960.29
2016-10-17T11:30:48.537Z,960.29
2016-10-17T11:31:48.536Z,960.31
2016-10-17T11:32:48.532Z,960.31
2016-10-17T11:33:48.534Z,960.34
2016-10-17T11:34:48.531Z,960.33
2016-10-17T11:35:48.533Z,960.31
2016-10-17T11:36:48.521Z,960.32
2016-10-17T11:37:48.524Z,960.34
2016-10-17T11:38:48.522Z,960.37
2016-10-17T11:39:48.517Z,960.38
2016-10-17T11:40:48.517Z,960.38
2016-10-17T11:41:48.510Z,960.36
2016-10-17T11:42:48.510Z,960.38
2016-10-17T11:43:48.508Z,960.39
2016-10-17T11:44:48.507Z,960.38
2016-10-17T11:45:48.504Z,960.39
2016-10-17T11:46:48.502Z,960.32
2016-10-17T11:47:48.499Z,960.41
2016-10-17T11:48:48.495Z,960.41
2016-10-17T11:49:48.490Z,960.41
2016-10-17T11:50:48.494Z,960.42
2016-10-17T11:51:48.494Z,960.39
2016-10-17T11:52:48.483Z,960.37
2016-10-17T11:53:48.479Z,960.39
2016-10-17T11:54:48.478Z,960.37
2016-10-17T11:55:48.477Z,960.39
2016-10-17T11:56:48.471Z,960.35
2016-10-17T11:57:48.474Z,960.32
2016-10-17T11:58:48.472Z,960.31
2016-10-17T11:59:48.466Z,960.3
2016-10-17T12:00:48.465Z,960.29
2016-10-17T12:01:48.468Z,960.25
2016-10-17T12:02:48.458Z,960.2
2016-10-17T12:03:48.454Z,960.19
2016-10-17T12:04:48.451Z,960.19
2016-10-17T12:05:48.446Z,960.14
2016-10-17T12:06:48.442Z,960.15
2016-10-17T12:07:48.441Z,960.13
2016-10-17T12:08:48.437Z,960.13
2016-10-17T12:09:48.436Z,960.14
2016-10-17T12:10:48.434Z,960.16
2016-10-17T12:11:48.428Z,960.11
2016-10-17T12:12:48.423Z,960.16
2016-10-17T12:13:48.425Z,960.15
2016-10-17T12:14:48.417Z,960.11
2016-10-17T12:15:48.417Z,960.16
2016-10-17T12:16:48.414Z,960.13
2016-10-17T12:17:48.410Z,960.12
2016-10-17T12:18:48.407Z,960.11
2016-10-17T12:19:48.407Z,960.1
2016-10-17T12:20:48.402Z,960.15
2016-10-17T12:21:48.394Z,960.13
2016-10-17T12:22:48.400Z,960.16
2016-10-17T12:23:48.385Z,960.15
2016-10-17T12:24:48.386Z,960.11
2016-10-17T12:25:48.382Z,960.12
2016-10-17T12:26:48.377Z,960.18
2016-10-17T12:27:48.375Z,960.13
2016-10-17T12:28:48.373Z,960.11
2016-10-17T12:29:48.368Z,960.15
2016-10-17T12:30:48.367Z,960.11
2016-10-17T12:31:48.364Z,960.17
2016-10-17T12:32:48.355Z,960.15
2016-10-17T12:33:48.353Z,960.14